sensor_id;sensor_type;location;lat;lon;timestamp;P1;durP1;ratioP1;P2;durP2;ratioP2
8474;SDS011;4274;52.012;8.448;2023-03-15T00:01:40;46.90;;;5.93;;
8474;SDS011;4274;52.012;8.448;2023-03-15T00:04:06;49.03;;;4.53;;
8474;SDS011;4274;52.012;8.448;2023-03-15T00:06:32;46.73;;;4.37;;
8474;SDS011;4274;52.012;8.448;2023-03-15T00:09:01;45.40;;;3.77;;
8474;SDS011;4274;52.012;8.448;2023-03-15T00:11:28;43.10;;;4.80;;
8474;SDS011;4274;52.012;8.448;2023-03-15T00:13:57;50.53;;;4.80;;
8474;SDS011;4274;52.012;8.448;2023-03-15T00:16:23;39.90;;;4.00;;
8474;SDS011;4274;52.012;8.448;2023-03-15T00:18:52;47.90;;;3.60;;
8474;SDS011;4274;52.012;8.448;2023-03-15T00:21:18;40.43;;;3.63;;
8474;SDS011;4274;52.012;8.448;2023-03-15T00:23:44;45.50;;;5.90;;
8474;SDS011;4274;52.012;8.448;2023-03-15T00:26:11;45.47;;;4.23;;
8474;SDS011;4274;52.012;8.448;2023-03-15T00:28:36;47.30;;;4.20;;
8474;SDS011;4274;52.012;8.448;2023-03-15T00:31:07;44.60;;;3.83;;
8474;SDS011;4274;52.012;8.448;2023-03-15T00:33:38;46.87;;;3.90;;
8474;SDS011;4274;52.012;8.448;2023-03-15T00:36:05;50.23;;;3.93;;
8474;SDS011;4274;52.012;8.448;2023-03-15T00:38:32;48.17;;;3.97;;
8474;SDS011;4274;52.012;8.448;2023-03-15T00:41:12;45.63;;;3.60;;
8474;SDS011;4274;52.012;8.448;2023-03-15T00:43:39;43.70;;;3.70;;
8474;SDS011;4274;52.012;8.448;2023-03-15T00:46:05;50.47;;;3.90;;
8474;SDS011;4274;52.012;8.448;2023-03-15T00:48:31;53.90;;;3.77;;
8474;SDS011;4274;52.012;8.448;2023-03-15T00:51:05;51.40;;;5.00;;
8474;SDS011;4274;52.012;8.448;2023-03-15T00:53:36;47.03;;;3.83;;
8474;SDS011;4274;52.012;8.448;2023-03-15T00:56:07;43.43;;;3.73;;
8474;SDS011;4274;52.012;8.448;2023-03-15T00:58:37;50.10;;;4.17;;
8474;SDS011;4274;52.012;8.448;2023-03-15T01:01:04;51.40;;;4.27;;
8474;SDS011;4274;52.012;8.448;2023-03-15T01:03:32;45.90;;;3.20;;
8474;SDS011;4274;52.012;8.448;2023-03-15T01:05:57;42.87;;;3.70;;
8474;SDS011;4274;52.012;8.448;2023-03-15T01:08:23;42.20;;;3.30;;
8474;SDS011;4274;52.012;8.448;2023-03-15T01:10:49;45.53;;;3.83;;
8474;SDS011;4274;52.012;8.448;2023-03-15T01:13:14;51.43;;;4.70;;
8474;SDS011;4274;52.012;8.448;2023-03-15T01:15:43;48.57;;;3.43;;
8474;SDS011;4274;52.012;8.448;2023-03-15T01:18:10;48.73;;;3.83;;
8474;SDS011;4274;52.012;8.448;2023-03-15T01:20:35;49.33;;;3.70;;
8474;SDS011;4274;52.012;8.448;2023-03-15T01:23:01;42.23;;;3.57;;
8474;SDS011;4274;52.012;8.448;2023-03-15T01:25:26;48.10;;;4.07;;
8474;SDS011;4274;52.012;8.448;2023-03-15T01:27:52;46.83;;;3.17;;
8474;SDS011;4274;52.012;8.448;2023-03-15T01:30:18;50.03;;;3.63;;
8474;SDS011;4274;52.012;8.448;2023-03-15T01:32:43;47.27;;;3.43;;
8474;SDS011;4274;52.012;8.448;2023-03-15T01:35:09;49.60;;;3.67;;
8474;SDS011;4274;52.012;8.448;2023-03-15T01:37:34;49.67;;;6.20;;
8474;SDS011;4274;52.012;8.448;2023-03-15T01:40:00;48.67;;;4.50;;
8474;SDS011;4274;52.012;8.448;2023-03-15T01:42:25;45.03;;;3.30;;
8474;SDS011;4274;52.012;8.448;2023-03-15T01:44:55;46.70;;;4.67;;
8474;SDS011;4274;52.012;8.448;2023-03-15T01:47:24;48.20;;;3.87;;
8474;SDS011;4274;52.012;8.448;2023-03-15T01:50:02;53.77;;;3.67;;
8474;SDS011;4274;52.012;8.448;2023-03-15T01:52:31;46.53;;;4.10;;
8474;SDS011;4274;52.012;8.448;2023-03-15T01:55:00;46.40;;;3.73;;
8474;SDS011;4274;52.012;8.448;2023-03-15T02:00:00;47.70;;;4.70;;
8474;SDS011;4274;52.012;8.448;2023-03-15T02:02:34;42.10;;;4.20;;
8474;SDS011;4274;52.012;8.448;2023-03-15T02:05:02;42.40;;;4.60;;
8474;SDS011;4274;52.012;8.448;2023-03-15T02:07:35;42.57;;;4.40;;
8474;SDS011;4274;52.012;8.448;2023-03-15T02:10:07;46.47;;;4.70;;
8474;SDS011;4274;52.012;8.448;2023-03-15T02:12:37;47.70;;;5.10;;
8474;SDS011;4274;52.012;8.448;2023-03-15T02:15:06;42.77;;;4.40;;
8474;SDS011;4274;52.012;8.448;2023-03-15T02:17:35;42.03;;;4.60;;
8474;SDS011;4274;52.012;8.448;2023-03-15T02:20:49;45.43;;;4.67;;
8474;SDS011;4274;52.012;8.448;2023-03-15T02:22:57;42.90;;;4.60;;
8474;SDS011;4274;52.012;8.448;2023-03-15T02:25:37;40.53;;;4.00;;
8474;SDS011;4274;52.012;8.448;2023-03-15T02:28:15;43.57;;;5.03;;
8474;SDS011;4274;52.012;8.448;2023-03-15T02:30:43;43.53;;;4.67;;
8474;SDS011;4274;52.012;8.448;2023-03-15T02:33:17;43.33;;;4.80;;
8474;SDS011;4274;52.012;8.448;2023-03-15T02:35:48;45.40;;;5.93;;
8474;SDS011;4274;52.012;8.448;2023-03-15T02:38:13;42.20;;;4.70;;
8474;SDS011;4274;52.012;8.448;2023-03-15T02:40:39;46.37;;;5.80;;
8474;SDS011;4274;52.012;8.448;2023-03-15T02:43:09;43.97;;;4.80;;
8474;SDS011;4274;52.012;8.448;2023-03-15T02:45:38;42.70;;;5.40;;
8474;SDS011;4274;52.012;8.448;2023-03-15T02:48:04;50.43;;;5.87;;
8474;SDS011;4274;52.012;8.448;2023-03-15T02:50:31;43.50;;;5.70;;
8474;SDS011;4274;52.012;8.448;2023-03-15T02:52:57;43.67;;;6.20;;
8474;SDS011;4274;52.012;8.448;2023-03-15T02:55:22;47.07;;;6.30;;
8474;SDS011;4274;52.012;8.448;2023-03-15T02:57:48;43.10;;;6.00;;
8474;SDS011;4274;52.012;8.448;2023-03-15T03:00:14;43.90;;;6.20;;
8474;SDS011;4274;52.012;8.448;2023-03-15T03:02:40;45.43;;;6.63;;
8474;SDS011;4274;52.012;8.448;2023-03-15T03:05:06;45.03;;;6.53;;
8474;SDS011;4274;52.012;8.448;2023-03-15T03:07:32;44.00;;;7.33;;
8474;SDS011;4274;52.012;8.448;2023-03-15T03:09:58;48.20;;;7.30;;
8474;SDS011;4274;52.012;8.448;2023-03-15T03:12:24;42.87;;;7.40;;
8474;SDS011;4274;52.012;8.448;2023-03-15T03:14:49;44.47;;;8.10;;
8474;SDS011;4274;52.012;8.448;2023-03-15T03:17:15;54.23;;;9.53;;
8474;SDS011;4274;52.012;8.448;2023-03-15T03:19:41;47.67;;;9.73;;
8474;SDS011;4274;52.012;8.448;2023-03-15T03:22:07;49.23;;;11.30;;
8474;SDS011;4274;52.012;8.448;2023-03-15T03:24:32;47.87;;;9.70;;
8474;SDS011;4274;52.012;8.448;2023-03-15T03:26:58;50.93;;;11.07;;
8474;SDS011;4274;52.012;8.448;2023-03-15T03:29:24;49.00;;;10.57;;
8474;SDS011;4274;52.012;8.448;2023-03-15T03:31:50;47.70;;;9.60;;
8474;SDS011;4274;52.012;8.448;2023-03-15T03:34:16;48.80;;;10.23;;
8474;SDS011;4274;52.012;8.448;2023-03-15T03:36:44;47.70;;;9.33;;
8474;SDS011;4274;52.012;8.448;2023-03-15T03:39:09;46.60;;;9.57;;
8474;SDS011;4274;52.012;8.448;2023-03-15T03:41:35;50.97;;;9.17;;
8474;SDS011;4274;52.012;8.448;2023-03-15T03:44:01;47.63;;;8.80;;
8474;SDS011;4274;52.012;8.448;2023-03-15T03:46:27;51.43;;;9.60;;
8474;SDS011;4274;52.012;8.448;2023-03-15T03:48:52;49.50;;;11.23;;
8474;SDS011;4274;52.012;8.448;2023-03-15T03:51:19;49.63;;;10.47;;
8474;SDS011;4274;52.012;8.448;2023-03-15T03:53:44;47.50;;;10.10;;
8474;SDS011;4274;52.012;8.448;2023-03-15T03:56:10;48.87;;;9.97;;
8474;SDS011;4274;52.012;8.448;2023-03-15T03:58:36;49.03;;;9.17;;
8474;SDS011;4274;52.012;8.448;2023-03-15T04:01:01;47.17;;;9.30;;
8474;SDS011;4274;52.012;8.448;2023-03-15T04:03:28;49.47;;;9.50;;
8474;SDS011;4274;52.012;8.448;2023-03-15T04:05:54;52.73;;;9.90;;
8474;SDS011;4274;52.012;8.448;2023-03-15T04:08:20;48.70;;;9.20;;
8474;SDS011;4274;52.012;8.448;2023-03-15T04:10:53;51.23;;;10.87;;
8474;SDS011;4274;52.012;8.448;2023-03-15T04:13:20;51.60;;;10.37;;
8474;SDS011;4274;52.012;8.448;2023-03-15T04:15:47;48.30;;;9.97;;
8474;SDS011;4274;52.012;8.448;2023-03-15T04:18:14;50.17;;;9.50;;
8474;SDS011;4274;52.012;8.448;2023-03-15T04:20:40;52.60;;;10.20;;
8474;SDS011;4274;52.012;8.448;2023-03-15T04:23:11;51.13;;;10.80;;
8474;SDS011;4274;52.012;8.448;2023-03-15T04:25:40;48.17;;;10.17;;
8474;SDS011;4274;52.012;8.448;2023-03-15T04:28:06;48.70;;;10.30;;
8474;SDS011;4274;52.012;8.448;2023-03-15T04:30:34;50.70;;;10.30;;
8474;SDS011;4274;52.012;8.448;2023-03-15T04:33:00;49.33;;;10.17;;
8474;SDS011;4274;52.012;8.448;2023-03-15T04:35:28;47.57;;;9.73;;
8474;SDS011;4274;52.012;8.448;2023-03-15T04:37:55;47.50;;;9.87;;
8474;SDS011;4274;52.012;8.448;2023-03-15T04:40:22;48.83;;;10.33;;
8474;SDS011;4274;52.012;8.448;2023-03-15T04:42:54;50.00;;;10.80;;
8474;SDS011;4274;52.012;8.448;2023-03-15T04:45:23;49.90;;;10.77;;
8474;SDS011;4274;52.012;8.448;2023-03-15T04:47:50;50.30;;;10.77;;
8474;SDS011;4274;52.012;8.448;2023-03-15T04:50:16;47.80;;;10.10;;
8474;SDS011;4274;52.012;8.448;2023-03-15T04:52:42;47.50;;;9.80;;
8474;SDS011;4274;52.012;8.448;2023-03-15T04:55:08;49.07;;;9.27;;
8474;SDS011;4274;52.012;8.448;2023-03-15T04:57:34;48.80;;;9.53;;
8474;SDS011;4274;52.012;8.448;2023-03-15T05:00:00;50.20;;;10.90;;
8474;SDS011;4274;52.012;8.448;2023-03-15T05:02:25;50.90;;;10.90;;
8474;SDS011;4274;52.012;8.448;2023-03-15T05:04:51;47.97;;;9.30;;
8474;SDS011;4274;52.012;8.448;2023-03-15T05:07:17;47.50;;;9.23;;
8474;SDS011;4274;52.012;8.448;2023-03-15T05:09:42;51.20;;;9.33;;
8474;SDS011;4274;52.012;8.448;2023-03-15T05:12:11;51.10;;;9.07;;
8474;SDS011;4274;52.012;8.448;2023-03-15T05:14:37;50.37;;;9.60;;
8474;SDS011;4274;52.012;8.448;2023-03-15T05:17:03;47.77;;;9.73;;
8474;SDS011;4274;52.012;8.448;2023-03-15T05:19:28;50.83;;;9.83;;
8474;SDS011;4274;52.012;8.448;2023-03-15T05:21:58;52.53;;;9.77;;
8474;SDS011;4274;52.012;8.448;2023-03-15T05:24:24;49.37;;;9.77;;
8474;SDS011;4274;52.012;8.448;2023-03-15T05:26:50;49.90;;;9.83;;
8474;SDS011;4274;52.012;8.448;2023-03-15T05:29:18;54.70;;;9.90;;
8474;SDS011;4274;52.012;8.448;2023-03-15T05:31:47;52.33;;;9.80;;
8474;SDS011;4274;52.012;8.448;2023-03-15T05:34:13;48.67;;;8.90;;
8474;SDS011;4274;52.012;8.448;2023-03-15T05:36:39;50.13;;;9.43;;
8474;SDS011;4274;52.012;8.448;2023-03-15T05:39:06;50.47;;;10.50;;
8474;SDS011;4274;52.012;8.448;2023-03-15T05:41:32;48.67;;;9.73;;
8474;SDS011;4274;52.012;8.448;2023-03-15T05:43:58;48.23;;;8.33;;
8474;SDS011;4274;52.012;8.448;2023-03-15T05:46:24;49.10;;;9.30;;
8474;SDS011;4274;52.012;8.448;2023-03-15T05:48:49;60.40;;;10.77;;
8474;SDS011;4274;52.012;8.448;2023-03-15T05:51:15;49.60;;;9.60;;
8474;SDS011;4274;52.012;8.448;2023-03-15T05:53:41;48.77;;;8.73;;
8474;SDS011;4274;52.012;8.448;2023-03-15T05:56:06;51.33;;;8.37;;
8474;SDS011;4274;52.012;8.448;2023-03-15T05:58:32;47.20;;;9.20;;
8474;SDS011;4274;52.012;8.448;2023-03-15T06:00:58;51.60;;;8.97;;
8474;SDS011;4274;52.012;8.448;2023-03-15T06:03:25;46.00;;;8.77;;
8474;SDS011;4274;52.012;8.448;2023-03-15T06:05:51;50.80;;;8.43;;
8474;SDS011;4274;52.012;8.448;2023-03-15T06:08:17;50.23;;;9.10;;
8474;SDS011;4274;52.012;8.448;2023-03-15T06:10:43;52.17;;;8.57;;
8474;SDS011;4274;52.012;8.448;2023-03-15T06:13:09;47.37;;;8.10;;
8474;SDS011;4274;52.012;8.448;2023-03-15T06:15:34;52.57;;;9.40;;
8474;SDS011;4274;52.012;8.448;2023-03-15T06:18:00;46.60;;;8.57;;
8474;SDS011;4274;52.012;8.448;2023-03-15T06:20:25;62.13;;;9.77;;
8474;SDS011;4274;52.012;8.448;2023-03-15T06:22:51;46.97;;;8.20;;
8474;SDS011;4274;52.012;8.448;2023-03-15T06:25:17;49.60;;;8.77;;
8474;SDS011;4274;52.012;8.448;2023-03-15T06:27:42;47.53;;;8.20;;
8474;SDS011;4274;52.012;8.448;2023-03-15T06:30:08;50.10;;;8.43;;
8474;SDS011;4274;52.012;8.448;2023-03-15T06:32:34;48.07;;;8.20;;
8474;SDS011;4274;52.012;8.448;2023-03-15T06:35:00;47.17;;;8.43;;
8474;SDS011;4274;52.012;8.448;2023-03-15T06:37:25;53.77;;;7.97;;
8474;SDS011;4274;52.012;8.448;2023-03-15T06:39:51;48.60;;;9.73;;
8474;SDS011;4274;52.012;8.448;2023-03-15T06:42:18;45.80;;;7.37;;
8474;SDS011;4274;52.012;8.448;2023-03-15T06:44:43;48.07;;;7.90;;
8474;SDS011;4274;52.012;8.448;2023-03-15T06:47:09;52.90;;;7.70;;
8474;SDS011;4274;52.012;8.448;2023-03-15T06:49:35;46.97;;;7.57;;
8474;SDS011;4274;52.012;8.448;2023-03-15T06:52:02;52.30;;;8.30;;
8474;SDS011;4274;52.012;8.448;2023-03-15T06:54:29;48.30;;;8.10;;
8474;SDS011;4274;52.012;8.448;2023-03-15T06:56:55;47.37;;;8.43;;
8474;SDS011;4274;52.012;8.448;2023-03-15T06:59:21;50.07;;;8.13;;
8474;SDS011;4274;52.012;8.448;2023-03-15T07:01:46;50.53;;;8.27;;
8474;SDS011;4274;52.012;8.448;2023-03-15T07:04:12;46.50;;;7.17;;
8474;SDS011;4274;52.012;8.448;2023-03-15T07:06:38;47.43;;;7.90;;
8474;SDS011;4274;52.012;8.448;2023-03-15T07:09:03;46.23;;;7.07;;
8474;SDS011;4274;52.012;8.448;2023-03-15T07:11:30;50.87;;;8.07;;
8474;SDS011;4274;52.012;8.448;2023-03-15T07:13:55;45.13;;;6.80;;
8474;SDS011;4274;52.012;8.448;2023-03-15T07:16:22;49.80;;;7.43;;
8474;SDS011;4274;52.012;8.448;2023-03-15T07:18:48;45.20;;;7.10;;
8474;SDS011;4274;52.012;8.448;2023-03-15T07:21:14;45.80;;;6.97;;
8474;SDS011;4274;52.012;8.448;2023-03-15T07:23:40;46.37;;;6.77;;
8474;SDS011;4274;52.012;8.448;2023-03-15T07:26:05;46.20;;;6.93;;
8474;SDS011;4274;52.012;8.448;2023-03-15T07:28:31;44.80;;;6.70;;
8474;SDS011;4274;52.012;8.448;2023-03-15T07:31:01;45.33;;;6.50;;
8474;SDS011;4274;52.012;8.448;2023-03-15T07:33:28;46.77;;;6.70;;
8474;SDS011;4274;52.012;8.448;2023-03-15T07:35:55;45.13;;;6.50;;
8474;SDS011;4274;52.012;8.448;2023-03-15T07:38:22;45.40;;;7.33;;
8474;SDS011;4274;52.012;8.448;2023-03-15T07:40:49;47.07;;;7.33;;
8474;SDS011;4274;52.012;8.448;2023-03-15T07:43:14;51.70;;;8.20;;
8474;SDS011;4274;52.012;8.448;2023-03-15T07:45:40;57.97;;;7.67;;
8474;SDS011;4274;52.012;8.448;2023-03-15T07:48:06;48.57;;;6.77;;
8474;SDS011;4274;52.012;8.448;2023-03-15T07:50:32;45.60;;;6.90;;
8474;SDS011;4274;52.012;8.448;2023-03-15T07:52:57;43.63;;;6.17;;
8474;SDS011;4274;52.012;8.448;2023-03-15T07:55:23;45.63;;;6.00;;
8474;SDS011;4274;52.012;8.448;2023-03-15T07:57:49;59.20;;;7.07;;
8474;SDS011;4274;52.012;8.448;2023-03-15T08:00:15;50.33;;;6.30;;
8474;SDS011;4274;52.012;8.448;2023-03-15T08:02:42;48.10;;;6.03;;
8474;SDS011;4274;52.012;8.448;2023-03-15T08:05:07;47.10;;;6.80;;
8474;SDS011;4274;52.012;8.448;2023-03-15T08:07:34;46.30;;;6.50;;
8474;SDS011;4274;52.012;8.448;2023-03-15T08:10:00;47.37;;;5.90;;
8474;SDS011;4274;52.012;8.448;2023-03-15T08:12:32;46.40;;;5.17;;
8474;SDS011;4274;52.012;8.448;2023-03-15T08:14:59;48.77;;;5.50;;
8474;SDS011;4274;52.012;8.448;2023-03-15T08:17:24;49.23;;;6.33;;
8474;SDS011;4274;52.012;8.448;2023-03-15T08:19:50;47.80;;;6.47;;
8474;SDS011;4274;52.012;8.448;2023-03-15T08:22:15;49.80;;;6.90;;
8474;SDS011;4274;52.012;8.448;2023-03-15T08:24:41;44.83;;;5.67;;
8474;SDS011;4274;52.012;8.448;2023-03-15T08:27:06;44.97;;;6.33;;
8474;SDS011;4274;52.012;8.448;2023-03-15T08:29:32;47.80;;;5.97;;
8474;SDS011;4274;52.012;8.448;2023-03-15T08:31:58;46.10;;;6.33;;
8474;SDS011;4274;52.012;8.448;2023-03-15T08:34:23;48.37;;;6.80;;
8474;SDS011;4274;52.012;8.448;2023-03-15T08:36:49;49.10;;;6.47;;
8474;SDS011;4274;52.012;8.448;2023-03-15T08:39:15;46.27;;;5.13;;
8474;SDS011;4274;52.012;8.448;2023-03-15T08:41:41;47.70;;;6.40;;
8474;SDS011;4274;52.012;8.448;2023-03-15T08:44:07;47.90;;;5.83;;
8474;SDS011;4274;52.012;8.448;2023-03-15T08:46:33;48.50;;;6.27;;
8474;SDS011;4274;52.012;8.448;2023-03-15T08:48:59;53.37;;;6.00;;
8474;SDS011;4274;52.012;8.448;2023-03-15T08:51:24;46.63;;;5.60;;
8474;SDS011;4274;52.012;8.448;2023-03-15T08:53:51;47.73;;;5.97;;
8474;SDS011;4274;52.012;8.448;2023-03-15T08:56:17;48.17;;;5.80;;
8474;SDS011;4274;52.012;8.448;2023-03-15T08:58:43;50.83;;;5.70;;
8474;SDS011;4274;52.012;8.448;2023-03-15T09:01:10;48.27;;;5.50;;
8474;SDS011;4274;52.012;8.448;2023-03-15T09:03:36;51.37;;;5.47;;
8474;SDS011;4274;52.012;8.448;2023-03-15T09:06:02;48.80;;;6.07;;
8474;SDS011;4274;52.012;8.448;2023-03-15T09:08:28;53.50;;;5.73;;
8474;SDS011;4274;52.012;8.448;2023-03-15T09:10:54;43.53;;;5.70;;
8474;SDS011;4274;52.012;8.448;2023-03-15T09:13:20;49.63;;;4.97;;
8474;SDS011;4274;52.012;8.448;2023-03-15T09:15:48;51.40;;;5.03;;
8474;SDS011;4274;52.012;8.448;2023-03-15T09:18:17;52.40;;;5.30;;
8474;SDS011;4274;52.012;8.448;2023-03-15T09:20:44;49.70;;;5.80;;
8474;SDS011;4274;52.012;8.448;2023-03-15T09:23:10;51.40;;;5.80;;
8474;SDS011;4274;52.012;8.448;2023-03-15T09:25:36;45.53;;;4.63;;
8474;SDS011;4274;52.012;8.448;2023-03-15T09:28:03;44.70;;;4.37;;
8474;SDS011;4274;52.012;8.448;2023-03-15T09:30:29;52.47;;;5.20;;
8474;SDS011;4274;52.012;8.448;2023-03-15T09:32:55;47.77;;;5.00;;
8474;SDS011;4274;52.012;8.448;2023-03-15T09:35:21;53.17;;;5.63;;
8474;SDS011;4274;52.012;8.448;2023-03-15T09:37:47;54.13;;;6.10;;
8474;SDS011;4274;52.012;8.448;2023-03-15T09:40:15;46.50;;;5.00;;
8474;SDS011;4274;52.012;8.448;2023-03-15T09:48:18;47.10;;;4.30;;
8474;SDS011;4274;52.012;8.448;2023-03-15T09:50:52;47.47;;;4.60;;
8474;SDS011;4274;52.012;8.448;2023-03-15T09:53:29;46.57;;;4.60;;
8474;SDS011;4274;52.012;8.448;2023-03-15T09:58:52;55.30;;;4.60;;
8474;SDS011;4274;52.012;8.448;2023-03-15T10:01:28;58.33;;;4.80;;
8474;SDS011;4274;52.012;8.448;2023-03-15T10:04:22;50.90;;;4.90;;
8474;SDS011;4274;52.012;8.448;2023-03-15T10:06:52;49.03;;;4.33;;
8474;SDS011;4274;52.012;8.448;2023-03-15T10:09:23;50.70;;;3.70;;
8474;SDS011;4274;52.012;8.448;2023-03-15T10:12:03;50.00;;;4.17;;
8474;SDS011;4274;52.012;8.448;2023-03-15T10:17:20;47.83;;;3.87;;
8474;SDS011;4274;52.012;8.448;2023-03-15T10:19:58;47.83;;;3.87;;
8474;SDS011;4274;52.012;8.448;2023-03-15T10:22:47;45.60;;;3.90;;
8474;SDS011;4274;52.012;8.448;2023-03-15T10:25:27;49.23;;;4.27;;
8474;SDS011;4274;52.012;8.448;2023-03-15T10:30:26;46.43;;;3.80;;
8474;SDS011;4274;52.012;8.448;2023-03-15T10:33:16;49.80;;;3.87;;
8474;SDS011;4274;52.012;8.448;2023-03-15T10:35:43;44.07;;;3.50;;
8474;SDS011;4274;52.012;8.448;2023-03-15T10:38:13;47.17;;;4.30;;
8474;SDS011;4274;52.012;8.448;2023-03-15T10:43:17;43.77;;;3.33;;
8474;SDS011;4274;52.012;8.448;2023-03-15T10:45:56;47.70;;;3.57;;
8474;SDS011;4274;52.012;8.448;2023-03-15T10:48:27;52.57;;;4.03;;
8474;SDS011;4274;52.012;8.448;2023-03-15T10:50:54;51.33;;;5.03;;
8474;SDS011;4274;52.012;8.448;2023-03-15T10:53:20;49.63;;;3.63;;
8474;SDS011;4274;52.012;8.448;2023-03-15T10:55:55;50.00;;;3.93;;
8474;SDS011;4274;52.012;8.448;2023-03-15T10:58:28;44.70;;;3.97;;
8474;SDS011;4274;52.012;8.448;2023-03-15T11:01:04;46.40;;;3.30;;
8474;SDS011;4274;52.012;8.448;2023-03-15T11:03:32;44.27;;;3.10;;
8474;SDS011;4274;52.012;8.448;2023-03-15T11:05:59;48.77;;;3.67;;
8474;SDS011;4274;52.012;8.448;2023-03-15T11:08:38;43.80;;;2.73;;
8474;SDS011;4274;52.012;8.448;2023-03-15T11:11:05;43.73;;;2.90;;
8474;SDS011;4274;52.012;8.448;2023-03-15T11:13:32;45.37;;;2.87;;
8474;SDS011;4274;52.012;8.448;2023-03-15T11:21:12;46.90;;;3.10;;
8474;SDS011;4274;52.012;8.448;2023-03-15T11:23:43;47.83;;;3.17;;
8474;SDS011;4274;52.012;8.448;2023-03-15T11:26:20;45.57;;;2.67;;
8474;SDS011;4274;52.012;8.448;2023-03-15T11:28:49;44.37;;;2.30;;
8474;SDS011;4274;52.012;8.448;2023-03-15T11:31:21;44.60;;;2.27;;
8474;SDS011;4274;52.012;8.448;2023-03-15T11:33:51;47.50;;;2.67;;
8474;SDS011;4274;52.012;8.448;2023-03-15T11:36:39;44.67;;;2.90;;
8474;SDS011;4274;52.012;8.448;2023-03-15T11:39:12;43.73;;;2.63;;
8474;SDS011;4274;52.012;8.448;2023-03-15T11:41:45;47.50;;;3.20;;
8474;SDS011;4274;52.012;8.448;2023-03-15T11:47:25;47.87;;;3.27;;
8474;SDS011;4274;52.012;8.448;2023-03-15T11:49:58;44.20;;;2.60;;
8474;SDS011;4274;52.012;8.448;2023-03-15T11:52:25;43.33;;;2.53;;
8474;SDS011;4274;52.012;8.448;2023-03-15T11:54:58;45.50;;;3.23;;
8474;SDS011;4274;52.012;8.448;2023-03-15T12:02:59;43.87;;;2.63;;
8474;SDS011;4274;52.012;8.448;2023-03-15T12:05:47;48.63;;;2.90;;
8474;SDS011;4274;52.012;8.448;2023-03-15T12:08:21;47.33;;;2.37;;
8474;SDS011;4274;52.012;8.448;2023-03-15T12:11:09;49.10;;;2.80;;
8474;SDS011;4274;52.012;8.448;2023-03-15T12:13:36;46.20;;;2.80;;
8474;SDS011;4274;52.012;8.448;2023-03-15T12:16:01;44.87;;;2.80;;
8474;SDS011;4274;52.012;8.448;2023-03-15T12:18:51;43.67;;;2.57;;
8474;SDS011;4274;52.012;8.448;2023-03-15T12:21:21;43.67;;;2.50;;
8474;SDS011;4274;52.012;8.448;2023-03-15T12:23:57;44.80;;;2.67;;
8474;SDS011;4274;52.012;8.448;2023-03-15T12:26:45;44.40;;;2.50;;
8474;SDS011;4274;52.012;8.448;2023-03-15T12:29:21;47.57;;;2.37;;
8474;SDS011;4274;52.012;8.448;2023-03-15T12:31:56;46.80;;;2.43;;
8474;SDS011;4274;52.012;8.448;2023-03-15T12:34:29;44.57;;;2.40;;
8474;SDS011;4274;52.012;8.448;2023-03-15T12:36:59;48.80;;;2.80;;
8474;SDS011;4274;52.012;8.448;2023-03-15T12:42:04;46.53;;;2.50;;
8474;SDS011;4274;52.012;8.448;2023-03-15T12:44:37;46.33;;;2.53;;
8474;SDS011;4274;52.012;8.448;2023-03-15T12:47:05;45.60;;;3.03;;
8474;SDS011;4274;52.012;8.448;2023-03-15T12:49:42;49.13;;;3.23;;
8474;SDS011;4274;52.012;8.448;2023-03-15T12:57:22;46.33;;;3.10;;
8474;SDS011;4274;52.012;8.448;2023-03-15T13:02:23;46.03;;;3.03;;
8474;SDS011;4274;52.012;8.448;2023-03-15T13:05:17;44.57;;;2.63;;
8474;SDS011;4274;52.012;8.448;2023-03-15T13:07:53;48.97;;;2.97;;
8474;SDS011;4274;52.012;8.448;2023-03-15T13:13:00;42.10;;;2.60;;
8474;SDS011;4274;52.012;8.448;2023-03-15T13:18:20;44.80;;;2.80;;
8474;SDS011;4274;52.012;8.448;2023-03-15T13:23:34;45.73;;;2.53;;
8474;SDS011;4274;52.012;8.448;2023-03-15T13:26:07;46.83;;;2.53;;
8474;SDS011;4274;52.012;8.448;2023-03-15T13:29:27;44.17;;;2.63;;
8474;SDS011;4274;52.012;8.448;2023-03-15T13:31:38;46.63;;;2.70;;
8474;SDS011;4274;52.012;8.448;2023-03-15T13:34:12;44.30;;;2.90;;
8474;SDS011;4274;52.012;8.448;2023-03-15T13:36:41;44.87;;;2.90;;
8474;SDS011;4274;52.012;8.448;2023-03-15T13:39:27;44.87;;;2.77;;
8474;SDS011;4274;52.012;8.448;2023-03-15T13:41:59;47.47;;;2.60;;
8474;SDS011;4274;52.012;8.448;2023-03-15T13:44:26;44.97;;;2.33;;
8474;SDS011;4274;52.012;8.448;2023-03-15T13:46:53;45.37;;;2.40;;
8474;SDS011;4274;52.012;8.448;2023-03-15T13:49:19;45.70;;;2.57;;
8474;SDS011;4274;52.012;8.448;2023-03-15T13:51:45;44.00;;;2.60;;
8474;SDS011;4274;52.012;8.448;2023-03-15T13:54:17;48.20;;;2.57;;
8474;SDS011;4274;52.012;8.448;2023-03-15T13:59:46;47.83;;;2.67;;
8474;SDS011;4274;52.012;8.448;2023-03-15T14:02:22;46.10;;;2.60;;
8474;SDS011;4274;52.012;8.448;2023-03-15T14:04:51;45.60;;;2.33;;
8474;SDS011;4274;52.012;8.448;2023-03-15T14:07:36;45.00;;;2.30;;
8474;SDS011;4274;52.012;8.448;2023-03-15T14:10:22;44.53;;;2.30;;
8474;SDS011;4274;52.012;8.448;2023-03-15T14:12:49;44.27;;;2.37;;
8474;SDS011;4274;52.012;8.448;2023-03-15T14:15:17;45.30;;;2.40;;
8474;SDS011;4274;52.012;8.448;2023-03-15T14:20:46;44.50;;;2.37;;
8474;SDS011;4274;52.012;8.448;2023-03-15T14:23:25;44.67;;;2.17;;
8474;SDS011;4274;52.012;8.448;2023-03-15T14:25:54;45.00;;;2.30;;
8474;SDS011;4274;52.012;8.448;2023-03-15T14:28:24;43.40;;;2.50;;
8474;SDS011;4274;52.012;8.448;2023-03-15T14:30:51;43.10;;;2.20;;
8474;SDS011;4274;52.012;8.448;2023-03-15T14:33:23;45.90;;;2.87;;
8474;SDS011;4274;52.012;8.448;2023-03-15T14:35:56;54.50;;;4.63;;
8474;SDS011;4274;52.012;8.448;2023-03-15T14:38:25;42.60;;;2.10;;
8474;SDS011;4274;52.012;8.448;2023-03-15T14:41:06;45.00;;;2.70;;
8474;SDS011;4274;52.012;8.448;2023-03-15T14:43:35;48.13;;;2.57;;
8474;SDS011;4274;52.012;8.448;2023-03-15T14:46:00;51.50;;;2.70;;
8474;SDS011;4274;52.012;8.448;2023-03-15T14:48:26;45.10;;;2.77;;
8474;SDS011;4274;52.012;8.448;2023-03-15T14:50:54;47.03;;;2.60;;
8474;SDS011;4274;52.012;8.448;2023-03-15T14:53:21;42.40;;;2.63;;
8474;SDS011;4274;52.012;8.448;2023-03-15T14:55:50;43.43;;;2.60;;
8474;SDS011;4274;52.012;8.448;2023-03-15T14:58:16;46.97;;;3.37;;
8474;SDS011;4274;52.012;8.448;2023-03-15T15:00:44;45.37;;;3.63;;
8474;SDS011;4274;52.012;8.448;2023-03-15T15:03:17;45.17;;;2.70;;
8474;SDS011;4274;52.012;8.448;2023-03-15T15:05:44;45.60;;;2.47;;
8474;SDS011;4274;52.012;8.448;2023-03-15T15:08:11;42.87;;;2.67;;
8474;SDS011;4274;52.012;8.448;2023-03-15T15:10:42;41.83;;;2.50;;
8474;SDS011;4274;52.012;8.448;2023-03-15T15:13:19;44.27;;;2.80;;
8474;SDS011;4274;52.012;8.448;2023-03-15T15:15:47;45.33;;;2.53;;
8474;SDS011;4274;52.012;8.448;2023-03-15T15:18:13;49.07;;;2.73;;
8474;SDS011;4274;52.012;8.448;2023-03-15T15:20:39;42.70;;;2.63;;
8474;SDS011;4274;52.012;8.448;2023-03-15T15:23:15;43.73;;;2.60;;
8474;SDS011;4274;52.012;8.448;2023-03-15T15:25:44;43.60;;;2.50;;
8474;SDS011;4274;52.012;8.448;2023-03-15T15:28:10;43.10;;;2.67;;
8474;SDS011;4274;52.012;8.448;2023-03-15T15:30:36;44.00;;;2.43;;
8474;SDS011;4274;52.012;8.448;2023-03-15T15:33:02;44.30;;;2.53;;
8474;SDS011;4274;52.012;8.448;2023-03-15T15:35:28;44.87;;;3.30;;
8474;SDS011;4274;52.012;8.448;2023-03-15T15:37:53;51.70;;;3.10;;
8474;SDS011;4274;52.012;8.448;2023-03-15T15:40:21;52.70;;;2.50;;
8474;SDS011;4274;52.012;8.448;2023-03-15T15:42:52;43.47;;;2.60;;
8474;SDS011;4274;52.012;8.448;2023-03-15T15:45:19;41.60;;;2.00;;
8474;SDS011;4274;52.012;8.448;2023-03-15T15:47:45;43.67;;;2.60;;
8474;SDS011;4274;52.012;8.448;2023-03-15T15:50:12;41.00;;;2.40;;
8474;SDS011;4274;52.012;8.448;2023-03-15T15:52:40;49.00;;;2.40;;
8474;SDS011;4274;52.012;8.448;2023-03-15T15:55:11;42.10;;;2.50;;
8474;SDS011;4274;52.012;8.448;2023-03-15T15:57:39;41.60;;;2.57;;
8474;SDS011;4274;52.012;8.448;2023-03-15T16:00:07;41.40;;;2.30;;
8474;SDS011;4274;52.012;8.448;2023-03-15T16:02:37;43.80;;;2.70;;
8474;SDS011;4274;52.012;8.448;2023-03-15T16:05:03;42.60;;;2.67;;
8474;SDS011;4274;52.012;8.448;2023-03-15T16:07:29;43.10;;;2.30;;